createdAt,value
2022-12-05T00:01:23.534Z,3.73
2022-12-05T00:03:54.002Z,3.80
2022-12-05T00:06:22.957Z,3.97
2022-12-05T00:08:51.785Z,3.98
2022-12-05T00:11:27.808Z,4.03
2022-12-05T00:13:56.963Z,4.13
2022-12-05T00:16:26.594Z,4.04
2022-12-05T00:18:54.174Z,4.20
2022-12-05T00:21:26.547Z,4.15
2022-12-05T00:23:55.636Z,4.18
2022-12-05T00:26:23.197Z,4.04
2022-12-05T00:28:52.608Z,4.21
2022-12-05T00:31:21.817Z,4.39
2022-12-05T00:33:49.699Z,4.34
2022-12-05T00:36:18.695Z,4.18
2022-12-05T00:38:46.214Z,4.19
2022-12-05T00:41:19.984Z,3.96
2022-12-05T00:43:47.992Z,3.99
2022-12-05T00:46:18.472Z,3.95
2022-12-05T00:48:46.253Z,3.77
2022-12-05T00:51:23.168Z,4.05
2022-12-05T00:53:50.781Z,3.97
2022-12-05T00:56:20.330Z,3.88
2022-12-05T00:58:48.455Z,3.70
2022-12-05T01:01:21.805Z,3.56
2022-12-05T01:03:49.448Z,3.65
2022-12-05T01:06:17.114Z,3.93
2022-12-05T01:08:44.526Z,4.00
2022-12-05T01:11:15.296Z,3.83
2022-12-05T01:13:43.133Z,3.83
2022-12-05T01:16:21.505Z,3.74
2022-12-05T01:18:49.383Z,4.01
2022-12-05T01:21:17.374Z,3.88
2022-12-05T01:23:44.721Z,3.78
2022-12-05T01:26:14.620Z,3.88
2022-12-05T01:28:42.034Z,3.75
2022-12-05T01:31:31.432Z,3.88
2022-12-05T01:34:00.487Z,4.10
2022-12-05T01:36:28.461Z,4.20
2022-12-05T01:38:56.265Z,3.86
2022-12-05T01:41:26.229Z,3.90
2022-12-05T01:44:07.166Z,3.69
2022-12-05T01:46:39.910Z,3.61
2022-12-05T01:49:11.345Z,3.71
2022-12-05T01:51:41.298Z,3.66
2022-12-05T01:54:08.515Z,3.74
2022-12-05T01:56:36.143Z,3.72
2022-12-05T01:59:05.519Z,3.83
2022-12-05T02:01:32.868Z,3.86
2022-12-05T02:04:00.431Z,3.55
2022-12-05T02:06:28.593Z,3.59
2022-12-05T02:08:56.015Z,3.86
2022-12-05T02:11:25.417Z,3.38
2022-12-05T02:14:10.456Z,3.68
2022-12-05T02:16:46.861Z,3.66
2022-12-05T02:19:27.530Z,3.62
2022-12-05T02:22:01.223Z,3.66
2022-12-05T02:24:28.628Z,3.79
2022-12-05T02:27:38.743Z,3.66
2022-12-05T02:30:11.540Z,3.72
2022-12-05T02:32:50.516Z,3.67
2022-12-05T02:35:36.296Z,3.95
2022-12-05T02:38:03.549Z,3.86
2022-12-05T02:40:35.459Z,3.86
2022-12-05T02:43:24.215Z,3.73
2022-12-05T02:45:54.167Z,3.61
2022-12-05T02:48:21.510Z,3.82
2022-12-05T02:50:49.317Z,3.87
2022-12-05T02:53:18.036Z,3.95
2022-12-05T02:55:45.767Z,3.86
2022-12-05T02:58:21.968Z,3.74
2022-12-05T03:00:50.507Z,3.53
2022-12-05T03:03:19.576Z,3.43
2022-12-05T03:05:57.436Z,3.37
2022-12-05T03:08:30.066Z,3.33
2022-12-05T03:10:58.853Z,3.47
2022-12-05T03:13:29.445Z,3.17
2022-12-05T03:16:00.652Z,3.36
2022-12-05T03:18:34.226Z,3.40
2022-12-05T03:21:08.925Z,2.83
2022-12-05T03:23:42.267Z,2.72
2022-12-05T03:26:20.637Z,2.58
2022-12-05T03:29:11.882Z,2.64
2022-12-05T03:31:52.626Z,2.66
2022-12-05T03:34:35.052Z,2.45
2022-12-05T03:37:07.125Z,2.33
2022-12-05T03:39:35.847Z,2.33
2022-12-05T03:42:14.005Z,2.55
2022-12-05T03:44:47.156Z,2.77
2022-12-05T03:47:33.209Z,2.41
2022-12-05T03:50:04.511Z,2.40
2022-12-05T03:53:03.696Z,2.50
2022-12-05T03:55:29.937Z,2.59
2022-12-05T03:58:08.902Z,2.58
2022-12-05T04:00:41.354Z,2.60
2022-12-05T04:03:24.542Z,2.90
2022-12-05T04:05:56.915Z,2.94
2022-12-05T04:08:31.506Z,3.02
2022-12-05T04:11:03.687Z,2.92
2022-12-05T04:13:33.966Z,2.96
2022-12-05T04:16:23.559Z,3.19
2022-12-05T04:18:56.742Z,2.69
2022-12-05T04:21:39.121Z,2.46
2022-12-05T04:24:29.095Z,2.35
2022-12-05T04:27:16.557Z,2.48
2022-12-05T04:29:53.247Z,2.41
2022-12-05T04:32:25.012Z,2.40
2022-12-05T04:34:55.926Z,2.29
2022-12-05T04:37:30.969Z,2.29
2022-12-05T04:40:04.551Z,2.38
2022-12-05T04:42:33.770Z,2.33
2022-12-05T04:45:08.345Z,2.49
2022-12-05T04:47:46.208Z,2.49
2022-12-05T04:50:14.546Z,2.93
2022-12-05T04:52:43.531Z,3.00
2022-12-05T04:55:16.223Z,3.02
2022-12-05T04:58:19.945Z,2.87
2022-12-05T05:00:52.995Z,2.84
2022-12-05T05:03:31.192Z,2.77
2022-12-05T05:05:58.793Z,2.78
2022-12-05T05:08:29.029Z,2.90
2022-12-05T05:11:11.766Z,2.97
2022-12-05T05:13:39.239Z,2.60
2022-12-05T05:16:07.137Z,2.67
2022-12-05T05:18:34.661Z,2.93
2022-12-05T05:21:01.957Z,2.78
2022-12-05T05:23:29.183Z,2.82
2022-12-05T05:25:56.631Z,3.04
2022-12-05T05:28:23.892Z,3.24
2022-12-05T05:30:51.264Z,3.50
2022-12-05T05:33:18.695Z,3.04
2022-12-05T05:35:46.010Z,3.26
2022-12-05T05:38:13.239Z,2.68
2022-12-05T05:40:40.633Z,2.70
2022-12-05T05:43:08.348Z,2.73
2022-12-05T05:45:36.938Z,2.73
2022-12-05T05:48:04.529Z,2.82
2022-12-05T05:50:31.752Z,2.81
2022-12-05T05:52:59.442Z,2.99
2022-12-05T05:55:26.767Z,2.56
2022-12-05T05:57:54.154Z,2.50
2022-12-05T06:00:21.721Z,2.54
2022-12-05T06:02:49.118Z,2.55
2022-12-05T06:05:16.479Z,2.46
2022-12-05T06:07:43.838Z,2.71
2022-12-05T06:10:11.317Z,2.76
2022-12-05T06:12:38.607Z,3.05
2022-12-05T06:15:06.601Z,2.90
2022-12-05T06:17:33.856Z,2.76
2022-12-05T06:20:01.220Z,2.73
2022-12-05T06:22:29.816Z,2.84
2022-12-05T06:24:57.220Z,3.02
2022-12-05T06:27:24.577Z,2.92
2022-12-05T06:29:52.957Z,2.88
2022-12-05T06:32:20.320Z,2.63
2022-12-05T06:34:47.610Z,2.62
2022-12-05T06:37:15.119Z,2.67
2022-12-05T06:39:42.478Z,2.69
2022-12-05T06:42:09.814Z,2.67
2022-12-05T06:44:37.151Z,2.75
2022-12-05T06:47:04.461Z,2.97
2022-12-05T06:49:37.616Z,3.22
2022-12-05T06:52:05.375Z,2.85
2022-12-05T06:54:32.861Z,2.55
2022-12-05T06:57:00.085Z,2.74
2022-12-05T06:59:27.352Z,3.10
2022-12-05T07:01:54.721Z,3.13
2022-12-05T07:04:26.324Z,2.71
2022-12-05T07:06:55.061Z,2.86
2022-12-05T07:09:45.136Z,3.41
2022-12-05T07:12:14.068Z,3.04
2022-12-05T07:14:49.860Z,2.94
2022-12-05T07:17:21.453Z,3.05
2022-12-05T07:19:52.198Z,3.03
2022-12-05T07:22:21.451Z,2.93
2022-12-05T07:24:49.040Z,3.17
2022-12-05T07:27:18.474Z,3.11
2022-12-05T07:29:48.081Z,3.31
2022-12-05T07:32:15.394Z,3.49
2022-12-05T07:34:42.720Z,3.59
2022-12-05T07:37:10.028Z,3.73
2022-12-05T07:39:37.339Z,3.34
2022-12-05T07:42:04.611Z,3.52
2022-12-05T07:44:32.035Z,3.34
2022-12-05T07:46:59.455Z,3.58
2022-12-05T07:49:26.825Z,3.80
2022-12-05T07:51:54.157Z,3.49
2022-12-05T07:54:21.410Z,3.57
2022-12-05T07:56:48.624Z,3.72
2022-12-05T07:59:15.955Z,3.68
2022-12-05T08:01:43.323Z,3.75
2022-12-05T08:04:15.061Z,3.90
2022-12-05T08:06:42.937Z,3.82
2022-12-05T08:09:10.688Z,4.20
2022-12-05T08:11:39.466Z,4.33
2022-12-05T08:14:08.295Z,4.18
2022-12-05T08:16:35.679Z,3.87
2022-12-05T08:19:05.833Z,3.68
2022-12-05T08:21:33.643Z,3.47
2022-12-05T08:24:00.953Z,3.37
2022-12-05T08:26:30.775Z,3.73
2022-12-05T08:28:59.224Z,3.93
2022-12-05T08:31:28.261Z,3.44
2022-12-05T08:33:59.305Z,3.54
2022-12-05T08:36:28.765Z,2.89
2022-12-05T08:38:57.699Z,3.16
2022-12-05T08:41:28.675Z,3.09
2022-12-05T08:43:58.419Z,3.33
2022-12-05T08:46:26.025Z,3.06
2022-12-05T08:48:53.415Z,3.18
2022-12-05T08:51:20.772Z,3.68
2022-12-05T08:53:48.028Z,3.36
2022-12-05T08:56:15.345Z,3.17
2022-12-05T08:58:42.641Z,3.18
2022-12-05T09:01:15.089Z,3.44
2022-12-05T09:03:47.606Z,3.64
2022-12-05T09:06:19.211Z,3.61
2022-12-05T09:08:47.338Z,3.22
2022-12-05T09:11:20.180Z,3.55
2022-12-05T09:13:48.126Z,3.49
2022-12-05T09:16:26.642Z,3.03
2022-12-05T09:18:53.945Z,3.06
2022-12-05T09:21:23.705Z,3.43
2022-12-05T09:23:51.506Z,3.14
2022-12-05T09:26:22.275Z,3.03
2022-12-05T09:28:49.593Z,2.98
2022-12-05T09:31:19.765Z,3.21
2022-12-05T09:33:47.581Z,2.94
2022-12-05T09:36:21.502Z,3.05
2022-12-05T09:38:49.546Z,3.23
2022-12-05T09:41:57.051Z,3.26
2022-12-05T09:44:43.446Z,2.66
2022-12-05T09:47:15.719Z,2.96
2022-12-05T09:49:50.031Z,2.91
2022-12-05T09:52:27.604Z,2.94
2022-12-05T09:54:55.749Z,3.18
2022-12-05T09:57:36.069Z,3.26
2022-12-05T10:00:07.343Z,3.60
2022-12-05T10:02:46.137Z,3.71
2022-12-05T10:05:24.974Z,3.60
2022-12-05T10:08:16.951Z,3.73
2022-12-05T10:11:29.535Z,3.54
2022-12-05T10:14:27.070Z,3.47
2022-12-05T10:17:21.346Z,3.79
2022-12-05T10:19:49.923Z,3.56
2022-12-05T10:22:22.944Z,3.45
2022-12-05T10:24:54.283Z,3.37
2022-12-05T10:27:39.511Z,3.03
2022-12-05T10:30:17.975Z,3.13
2022-12-05T10:32:58.466Z,3.13
2022-12-05T10:35:37.154Z,3.19
2022-12-05T10:38:07.336Z,3.59
2022-12-05T10:40:39.679Z,3.84
2022-12-05T10:43:08.854Z,3.97
2022-12-05T10:45:43.677Z,3.82
2022-12-05T10:48:13.077Z,3.82
2022-12-05T10:50:42.476Z,3.49
2022-12-05T10:53:16.501Z,3.76
2022-12-05T10:56:28.350Z,4.27
2022-12-05T10:58:39.859Z,4.09
2022-12-05T11:01:09.437Z,4.05
2022-12-05T11:03:41.342Z,4.10
2022-12-05T11:06:24.008Z,3.96
2022-12-05T11:09:05.641Z,4.29
2022-12-05T11:11:33.890Z,4.40
2022-12-05T11:14:02.887Z,4.58
2022-12-05T11:16:40.033Z,4.49
2022-12-05T11:19:22.822Z,4.30
2022-12-05T11:21:50.496Z,4.00
2022-12-05T11:24:47.569Z,4.27
2022-12-05T11:27:18.202Z,4.29
2022-12-05T11:29:55.960Z,4.47
2022-12-05T11:32:25.958Z,4.44
2022-12-05T11:35:04.530Z,4.49
2022-12-05T11:37:46.015Z,4.13
2022-12-05T11:40:30.879Z,4.12
2022-12-05T11:43:15.197Z,4.36
2022-12-05T11:45:51.554Z,4.49
2022-12-05T11:48:22.305Z,4.72
2022-12-05T11:50:59.064Z,4.90
2022-12-05T11:53:51.423Z,4.80
2022-12-05T11:57:12.630Z,5.13
2022-12-05T11:59:39.909Z,5.19
2022-12-05T12:02:35.353Z,5.08
2022-12-05T12:05:14.585Z,4.96
2022-12-05T12:07:57.120Z,4.84
2022-12-05T12:10:48.676Z,3.76
2022-12-05T12:13:57.626Z,3.95
2022-12-05T12:16:37.028Z,4.02
2022-12-05T12:19:10.878Z,4.06
2022-12-05T12:21:54.556Z,4.19
2022-12-05T12:24:39.815Z,4.42
2022-12-05T12:27:32.079Z,4.52
2022-12-05T12:30:12.341Z,4.57
2022-12-05T12:32:58.029Z,4.53
2022-12-05T12:35:37.063Z,4.12
2022-12-05T12:38:17.640Z,4.34
2022-12-05T12:40:50.872Z,4.29
2022-12-05T12:43:52.715Z,4.48
2022-12-05T12:46:20.243Z,4.79
2022-12-05T12:49:03.950Z,4.72
2022-12-05T12:51:33.495Z,4.85
2022-12-05T12:54:25.280Z,4.81
2022-12-05T12:57:39.831Z,4.71
2022-12-05T13:00:29.061Z,4.78
2022-12-05T13:03:02.050Z,5.05
2022-12-05T13:05:41.739Z,4.91
2022-12-05T13:08:35.408Z,4.39
2022-12-05T13:11:06.035Z,5.00
2022-12-05T13:13:37.219Z,5.04
2022-12-05T13:16:08.002Z,4.78
2022-12-05T13:18:35.750Z,4.79
2022-12-05T13:21:07.593Z,4.81
2022-12-05T13:23:43.760Z,4.90
2022-12-05T13:26:12.202Z,5.08
2022-12-05T13:28:47.215Z,4.95
2022-12-05T13:31:39.628Z,4.96
2022-12-05T13:34:27.462Z,5.25
2022-12-05T13:37:15.661Z,5.30
2022-12-05T13:40:09.737Z,5.56
2022-12-05T13:42:37.954Z,5.01
2022-12-05T13:45:05.177Z,4.98
2022-12-05T13:47:35.103Z,5.25
2022-12-05T13:50:23.642Z,5.23
2022-12-05T13:52:56.562Z,5.25
2022-12-05T13:55:36.776Z,5.19
2022-12-05T13:58:16.526Z,5.29
2022-12-05T14:00:45.363Z,5.24
2022-12-05T14:03:35.573Z,5.36
2022-12-05T14:06:03.037Z,5.41
2022-12-05T14:08:30.227Z,5.21
2022-12-05T14:10:57.429Z,5.04
2022-12-05T14:13:25.660Z,5.28
2022-12-05T14:15:54.688Z,5.35
2022-12-05T14:18:31.188Z,4.74
2022-12-05T14:21:11.530Z,4.66
2022-12-05T14:23:57.580Z,4.78
2022-12-05T14:26:48.963Z,4.95
2022-12-05T14:29:36.850Z,4.44
2022-12-05T14:32:19.167Z,4.57
2022-12-05T14:34:58.149Z,4.91
2022-12-05T14:37:29.233Z,5.06
2022-12-05T14:39:58.706Z,5.01
2022-12-05T14:42:39.328Z,5.08
2022-12-05T14:45:30.091Z,4.57
2022-12-05T14:47:59.654Z,4.60
2022-12-05T14:50:40.872Z,4.64
2022-12-05T14:53:15.753Z,4.34
2022-12-05T14:55:50.734Z,4.20
2022-12-05T14:58:22.284Z,3.98
2022-12-05T15:00:58.081Z,4.07
2022-12-05T15:03:30.864Z,4.04
2022-12-05T15:06:03.675Z,4.26
2022-12-05T15:08:47.391Z,4.27
2022-12-05T15:11:28.455Z,4.49
2022-12-05T15:14:00.509Z,4.42
2022-12-05T15:16:30.001Z,4.64
2022-12-05T15:19:05.274Z,4.28
2022-12-05T15:21:36.544Z,4.48
2022-12-05T15:24:21.924Z,4.63
2022-12-05T15:26:50.504Z,4.47
2022-12-05T15:29:29.156Z,4.44
2022-12-05T15:32:02.402Z,4.35
2022-12-05T15:34:45.967Z,4.43
2022-12-05T15:37:25.904Z,4.43
2022-12-05T15:40:11.122Z,4.30
2022-12-05T15:42:49.945Z,3.99
2022-12-05T15:45:20.014Z,4.09
2022-12-05T15:47:59.840Z,3.62
2022-12-05T15:50:33.814Z,3.59
2022-12-05T15:53:05.654Z,3.96
2022-12-05T15:55:39.360Z,3.73
2022-12-05T15:58:13.445Z,4.10
2022-12-05T16:00:59.643Z,4.27
2022-12-05T16:03:49.249Z,4.55
2022-12-05T16:06:20.372Z,4.56
2022-12-05T16:08:48.103Z,4.28
2022-12-05T16:11:16.140Z,4.02
2022-12-05T16:13:49.912Z,4.44
2022-12-05T16:16:24.341Z,4.48
2022-12-05T16:19:00.202Z,4.13
2022-12-05T16:21:33.103Z,4.19
2022-12-05T16:24:08.483Z,4.50
2022-12-05T16:26:39.709Z,4.52
2022-12-05T16:29:09.569Z,4.76
2022-12-05T16:31:36.933Z,4.84
2022-12-05T16:34:07.616Z,4.44
2022-12-05T16:36:35.244Z,4.83
2022-12-05T16:39:07.211Z,4.80
2022-12-05T16:41:36.322Z,4.37
2022-12-05T16:44:10.761Z,4.60
2022-12-05T16:46:40.339Z,4.82
2022-12-05T16:49:33.043Z,4.75
2022-12-05T16:52:09.675Z,4.56
2022-12-05T16:54:37.063Z,4.87
2022-12-05T16:57:04.630Z,4.96
2022-12-05T16:59:37.248Z,4.96
2022-12-05T17:02:10.216Z,4.81
2022-12-05T17:04:38.709Z,4.78
2022-12-05T17:07:06.002Z,4.62
2022-12-05T17:09:33.363Z,4.75
2022-12-05T17:12:24.043Z,4.83
2022-12-05T17:14:51.300Z,4.77
2022-12-05T17:17:19.051Z,5.02
2022-12-05T17:19:46.437Z,5.04
2022-12-05T17:22:15.480Z,5.14
2022-12-05T17:24:43.106Z,4.93
2022-12-05T17:27:11.954Z,5.14
2022-12-05T17:29:39.266Z,5.23
2022-12-05T17:32:06.557Z,5.25
2022-12-05T17:34:34.874Z,5.06
2022-12-05T17:37:03.056Z,5.02
2022-12-05T17:39:31.386Z,4.86
2022-12-05T17:41:59.025Z,4.83
2022-12-05T17:44:26.483Z,4.80
2022-12-05T17:46:55.069Z,4.89
2022-12-05T17:49:22.942Z,5.03
2022-12-05T17:52:20.405Z,4.97
2022-12-05T17:54:41.009Z,5.07
2022-12-05T17:57:08.417Z,5.09
2022-12-05T17:59:35.656Z,5.27
2022-12-05T18:02:02.946Z,5.16
2022-12-05T18:04:30.207Z,5.02
2022-12-05T18:06:57.506Z,4.90
2022-12-05T18:09:24.716Z,4.93
2022-12-05T18:11:51.967Z,4.94
2022-12-05T18:14:19.208Z,5.09
2022-12-05T18:16:46.745Z,4.80
2022-12-05T18:19:15.125Z,5.08
2022-12-05T18:21:42.494Z,5.08
2022-12-05T18:24:10.413Z,5.05
2022-12-05T18:26:37.661Z,5.07
2022-12-05T18:29:04.950Z,4.92
2022-12-05T18:31:32.505Z,4.95
2022-12-05T18:33:59.863Z,4.87
2022-12-05T18:36:27.282Z,4.83
2022-12-05T18:38:56.084Z,5.10
2022-12-05T18:41:24.149Z,5.07
2022-12-05T18:43:51.564Z,4.79
2022-12-05T18:46:19.521Z,4.77
2022-12-05T18:48:47.960Z,5.03
2022-12-05T18:51:18.937Z,5.23
2022-12-05T18:53:52.526Z,5.24
2022-12-05T18:56:31.514Z,5.40
2022-12-05T18:59:04.790Z,5.36
2022-12-05T19:01:34.399Z,4.96
2022-12-05T19:04:03.982Z,5.17
2022-12-05T19:06:32.931Z,5.14
2022-12-05T19:09:02.585Z,5.15
2022-12-05T19:11:29.930Z,4.99
2022-12-05T19:13:58.635Z,4.98
2022-12-05T19:16:28.117Z,5.14
2022-12-05T19:18:57.025Z,5.01
2022-12-05T19:21:25.112Z,5.06
2022-12-05T19:23:52.771Z,4.83
2022-12-05T19:26:20.278Z,4.80
2022-12-05T19:28:47.689Z,4.98
2022-12-05T19:31:18.203Z,5.13
2022-12-05T19:33:47.910Z,5.19
2022-12-05T19:36:22.940Z,5.07
2022-12-05T19:38:51.483Z,5.08
2022-12-05T19:41:21.998Z,4.97
2022-12-05T19:43:49.394Z,5.17
2022-12-05T19:46:20.673Z,5.11
2022-12-05T19:48:48.304Z,4.73
2022-12-05T19:51:15.764Z,4.57
2022-12-05T19:53:44.058Z,4.42
2022-12-05T19:56:24.950Z,4.37
2022-12-05T19:58:53.961Z,4.36
2022-12-05T20:01:27.839Z,4.24
2022-12-05T20:04:06.727Z,4.67
2022-12-05T20:06:43.163Z,4.77
2022-12-05T20:09:21.453Z,4.98
2022-12-05T20:11:55.044Z,4.91
2022-12-05T20:14:25.297Z,4.88
2022-12-05T20:16:53.310Z,4.68
2022-12-05T20:19:20.676Z,4.72
2022-12-05T20:21:48.190Z,4.73
2022-12-05T20:24:15.465Z,4.55
2022-12-05T20:26:44.109Z,4.61
2022-12-05T20:29:11.353Z,4.67
2022-12-05T20:31:41.050Z,4.83
2022-12-05T20:34:14.778Z,5.15
2022-12-05T20:36:42.552Z,4.99
2022-12-05T20:39:14.703Z,4.64
2022-12-05T20:41:42.303Z,4.37
2022-12-05T20:44:13.487Z,4.50
2022-12-05T20:46:41.655Z,4.29
2022-12-05T20:49:09.250Z,4.40
2022-12-05T20:51:36.564Z,4.02
2022-12-05T20:54:05.374Z,4.28
2022-12-05T20:56:34.265Z,4.05
2022-12-05T20:59:03.987Z,3.92
2022-12-05T21:01:33.241Z,3.98
2022-12-05T21:04:01.428Z,4.00
2022-12-05T21:06:33.837Z,4.20
2022-12-05T21:09:01.974Z,4.09
2022-12-05T21:11:30.322Z,4.19
2022-12-05T21:14:00.255Z,4.43
2022-12-05T21:16:27.744Z,4.68
2022-12-05T21:18:56.156Z,4.49
2022-12-05T21:21:25.931Z,4.28
2022-12-05T21:23:58.242Z,4.09
2022-12-05T21:26:27.096Z,4.21
2022-12-05T21:28:54.871Z,4.34
2022-12-05T21:31:26.279Z,4.56
2022-12-05T21:33:56.890Z,4.71
2022-12-05T21:36:25.167Z,4.58
2022-12-05T21:38:56.203Z,4.74
2022-12-05T21:41:26.895Z,4.84
2022-12-05T21:43:55.686Z,4.54
2022-12-05T21:46:26.891Z,4.71
2022-12-05T21:48:54.872Z,4.94
2022-12-05T21:51:22.951Z,4.71
2022-12-05T21:53:50.562Z,4.62
2022-12-05T21:56:22.641Z,4.52
2022-12-05T21:58:50.409Z,4.40
2022-12-05T22:01:19.944Z,4.44
2022-12-05T22:03:47.587Z,4.64
2022-12-05T22:06:15.421Z,4.47
2022-12-05T22:08:43.306Z,4.44
2022-12-05T22:11:18.656Z,4.65
2022-12-05T22:13:47.046Z,4.75
2022-12-05T22:16:15.203Z,4.89
2022-12-05T22:18:43.374Z,4.88
2022-12-05T22:21:13.472Z,4.78
2022-12-05T22:23:40.774Z,4.64
2022-12-05T22:26:17.676Z,4.63
2022-12-05T22:28:45.497Z,4.22
2022-12-05T22:31:15.172Z,4.17
2022-12-05T22:33:48.185Z,4.17
2022-12-05T22:36:17.339Z,4.34
2022-12-05T22:38:47.279Z,4.53
2022-12-05T22:41:15.676Z,4.46
2022-12-05T22:43:44.709Z,4.39
2022-12-05T22:46:20.586Z,4.45
2022-12-05T22:48:49.089Z,4.34
2022-12-05T22:51:17.880Z,4.32
2022-12-05T22:53:45.496Z,4.47
2022-12-05T22:56:15.611Z,4.42
2022-12-05T22:58:43.093Z,3.98
2022-12-05T23:01:13.500Z,4.07
2022-12-05T23:03:41.606Z,4.18
2022-12-05T23:06:11.908Z,4.49
2022-12-05T23:08:40.721Z,4.48
2022-12-05T23:11:09.101Z,4.36
2022-12-05T23:13:37.651Z,4.13
2022-12-05T23:16:26.472Z,4.21
2022-12-05T23:18:56.110Z,4.28
2022-12-05T23:21:38.086Z,4.21
2022-12-05T23:24:08.375Z,4.05
2022-12-05T23:26:38.862Z,4.23
2022-12-05T23:29:08.171Z,4.23
2022-12-05T23:31:35.597Z,4.37
2022-12-05T23:34:04.243Z,4.46
2022-12-05T23:36:33.369Z,4.31
2022-12-05T23:39:01.302Z,4.43
2022-12-05T23:41:29.706Z,4.44
2022-12-05T23:43:59.690Z,4.40
2022-12-05T23:46:27.202Z,4.32
2022-12-05T23:48:55.950Z,4.47
2022-12-05T23:51:29.634Z,4.39
2022-12-05T23:54:01.377Z,4.38
2022-12-05T23:56:31.407Z,4.35
2022-12-05T23:58:59.883Z,4.37
